Terminal Aerodrome Forecast
Issued by NWS

Home | Current Version | Previous Version | Text Only | Print | Product List | Glossary On
Versions: 1 2 3 4 5 6 7 8 9 10 11 12 13 14 15 16 17 18 19 20 21 22 23 24 25 26 27 28
000
FTUS46 KPDT 212327
TAFBDN
TAF
KBDN 212327Z 2200/2224 02005KT P6SM FEW035 SCT110 BKN200
     FM220300 33005KT P6SM VCSH SCT024 BKN040 OVC100
     FM221000 VRB03KT 1 1/2SM -SN BR BKN005 OVC009
     FM221900 36005KT 6SM -SHSN SCT009 OVC025
     FM222100 35007KT P6SM SCT025 BKN035=

USA.gov is the U.S. government's official web portal to all federal, state and local government web resources and services.